createdAt,value
2022-11-17T00:01:45.751Z,2.90
2022-11-17T00:04:31.258Z,3.10
2022-11-17T00:07:17.033Z,3.38
2022-11-17T00:10:02.711Z,2.70
2022-11-17T00:13:06.943Z,2.67
2022-11-17T00:15:52.685Z,2.53
2022-11-17T00:18:57.339Z,2.30
2022-11-17T00:21:42.919Z,2.63
2022-11-17T00:24:28.525Z,2.45
2022-11-17T00:27:14.301Z,2.67
2022-11-17T00:30:00.337Z,2.80
2022-11-17T00:33:04.677Z,2.47
2022-11-17T00:35:52.350Z,2.50
2022-11-17T00:38:37.945Z,3.13
2022-11-17T00:41:23.722Z,2.83
2022-11-17T00:44:09.991Z,2.80
2022-11-17T00:46:55.540Z,3.00
2022-11-17T00:49:41.380Z,3.20
2022-11-17T00:52:26.920Z,3.00
2022-11-17T00:55:12.710Z,2.78
2022-11-17T00:57:58.298Z,3.10
2022-11-17T01:00:45.393Z,3.20
2022-11-17T01:03:31.297Z,2.70
2022-11-17T01:06:19.361Z,2.42
2022-11-17T01:09:09.899Z,2.63
2022-11-17T01:11:55.942Z,2.50
2022-11-17T01:14:41.769Z,2.30
2022-11-17T01:17:27.384Z,2.70
2022-11-17T01:20:12.834Z,2.58
2022-11-17T01:22:58.435Z,2.73
2022-11-17T01:25:44.174Z,2.42
2022-11-17T01:28:29.703Z,2.83
2022-11-17T01:31:18.170Z,2.60
2022-11-17T01:34:04.455Z,2.50
2022-11-17T01:37:08.701Z,2.55
2022-11-17T01:39:54.254Z,2.78
2022-11-17T01:42:40.039Z,2.33
2022-11-17T01:45:26.904Z,3.17
2022-11-17T01:48:15.437Z,2.33
2022-11-17T01:51:01.001Z,3.28
2022-11-17T01:53:50.411Z,2.70
2022-11-17T01:56:41.786Z,2.30
2022-11-17T01:59:35.229Z,2.53
2022-11-17T02:02:21.549Z,2.47
2022-11-17T02:05:18.593Z,2.20
2022-11-17T02:08:06.952Z,2.60
2022-11-17T02:10:53.598Z,2.03
2022-11-17T02:13:40.888Z,2.20
2022-11-17T02:16:26.699Z,2.47
2022-11-17T02:19:15.708Z,2.30
2022-11-17T02:22:38.400Z,2.22
2022-11-17T02:25:44.670Z,2.17
2022-11-17T02:28:37.587Z,2.33
2022-11-17T02:31:30.776Z,2.25
2022-11-17T02:34:27.028Z,2.47
2022-11-17T02:37:23.905Z,1.98
2022-11-17T02:40:16.474Z,2.38
2022-11-17T02:43:26.318Z,2.73
2022-11-17T02:46:15.465Z,2.53
2022-11-17T02:49:07.419Z,2.58
2022-11-17T02:51:56.397Z,2.50
2022-11-17T02:54:42.124Z,2.22
2022-11-17T02:57:32.929Z,2.20
2022-11-17T03:00:20.274Z,2.42
2022-11-17T03:03:05.732Z,2.60
2022-11-17T03:06:35.961Z,1.90
2022-11-17T03:09:39.968Z,2.20
2022-11-17T03:12:41.877Z,2.58
2022-11-17T03:15:41.709Z,2.60
2022-11-17T03:18:46.688Z,2.65
2022-11-17T03:22:06.145Z,2.53
2022-11-17T03:24:57.255Z,2.55
2022-11-17T03:27:47.353Z,2.97
2022-11-17T03:30:37.591Z,2.80
2022-11-17T03:33:25.707Z,2.63
2022-11-17T03:36:20.112Z,2.30
2022-11-17T03:39:08.603Z,2.90
2022-11-17T03:42:00.307Z,2.90
2022-11-17T03:44:53.848Z,2.40
2022-11-17T03:47:40.374Z,2.47
2022-11-17T03:50:51.284Z,2.90
2022-11-17T03:53:38.211Z,2.93
2022-11-17T03:56:54.135Z,3.40
2022-11-17T04:00:04.478Z,2.47
2022-11-17T04:02:55.694Z,2.75
2022-11-17T04:05:41.253Z,3.03
2022-11-17T04:08:30.897Z,2.83
2022-11-17T04:11:35.026Z,3.25
2022-11-17T04:14:39.546Z,3.00
2022-11-17T04:17:25.065Z,3.00
2022-11-17T04:20:10.737Z,2.85
2022-11-17T04:23:08.306Z,3.23
2022-11-17T04:26:14.880Z,3.20
2022-11-17T04:29:00.492Z,3.28
2022-11-17T04:31:46.333Z,3.35
2022-11-17T04:34:34.225Z,3.17
2022-11-17T04:37:19.900Z,2.95
2022-11-17T04:40:06.197Z,2.95
2022-11-17T04:42:52.998Z,3.80
2022-11-17T04:45:38.777Z,3.15
2022-11-17T04:48:24.512Z,3.42
2022-11-17T04:51:10.315Z,3.40
2022-11-17T04:53:56.631Z,3.30
2022-11-17T04:56:43.615Z,3.67
2022-11-17T04:59:29.592Z,3.22
2022-11-17T05:02:15.360Z,3.13
2022-11-17T05:05:01.673Z,3.10
2022-11-17T05:07:47.533Z,3.35
2022-11-17T05:10:51.345Z,3.33
2022-11-17T05:13:37.759Z,3.03
2022-11-17T05:16:42.678Z,3.90
2022-11-17T05:19:30.247Z,3.63
2022-11-17T05:22:38.048Z,3.73
2022-11-17T05:25:23.722Z,3.42
2022-11-17T05:28:09.392Z,3.22
2022-11-17T05:30:55.083Z,3.85
2022-11-17T05:33:41.864Z,3.17
2022-11-17T05:36:28.245Z,3.25
2022-11-17T05:39:14.324Z,3.53
2022-11-17T05:42:00.499Z,3.67
2022-11-17T05:44:48.101Z,3.78
2022-11-17T05:47:33.927Z,3.83
2022-11-17T05:50:19.698Z,3.17
2022-11-17T05:53:05.851Z,3.50
2022-11-17T05:55:51.871Z,3.30
2022-11-17T05:58:40.252Z,3.92
2022-11-17T06:01:27.385Z,3.30
2022-11-17T06:04:18.068Z,4.43
2022-11-17T06:07:03.952Z,3.60
2022-11-17T06:09:51.297Z,3.90
2022-11-17T06:12:37.116Z,4.60
2022-11-17T06:15:22.904Z,4.18
2022-11-17T06:18:16.743Z,3.75
2022-11-17T06:21:02.816Z,3.60
2022-11-17T06:23:49.313Z,3.95
2022-11-17T06:26:35.545Z,3.57
2022-11-17T06:29:21.273Z,3.42
2022-11-17T06:32:07.139Z,3.25
2022-11-17T06:34:55.976Z,3.70
2022-11-17T06:37:42.874Z,3.15
2022-11-17T06:40:29.369Z,3.80
2022-11-17T06:43:15.276Z,3.35
2022-11-17T06:46:05.636Z,3.40
2022-11-17T06:48:54.489Z,3.47
2022-11-17T06:51:44.956Z,3.55
2022-11-17T06:54:31.088Z,3.65
2022-11-17T06:57:16.531Z,3.63
2022-11-17T07:00:02.540Z,3.58
2022-11-17T07:02:48.297Z,3.60
2022-11-17T07:05:40.127Z,3.30
2022-11-17T07:08:26.598Z,3.17
2022-11-17T07:11:16.579Z,3.85
2022-11-17T07:14:02.948Z,3.80
2022-11-17T07:16:48.295Z,3.60
2022-11-17T07:19:34.118Z,3.05
2022-11-17T07:22:19.674Z,3.40
2022-11-17T07:25:05.863Z,3.93
2022-11-17T07:27:58.265Z,3.20
2022-11-17T07:30:46.551Z,3.63
2022-11-17T07:33:47.520Z,3.17
2022-11-17T07:36:33.316Z,3.35
2022-11-17T07:39:21.649Z,3.90
2022-11-17T07:42:07.709Z,3.33
2022-11-17T07:50:06.245Z,3.63
2022-11-17T07:52:53.487Z,3.35
2022-11-17T07:55:39.291Z,3.45
2022-11-17T07:58:25.592Z,3.58
2022-11-17T08:01:15.586Z,3.58
2022-11-17T08:04:01.633Z,3.17
2022-11-17T08:06:47.294Z,3.50
2022-11-17T08:09:32.975Z,3.83
2022-11-17T08:12:18.583Z,3.85
2022-11-17T08:15:04.204Z,4.03
2022-11-17T08:17:54.652Z,3.38
2022-11-17T08:20:40.381Z,3.38
2022-11-17T08:23:26.020Z,3.45
2022-11-17T08:26:11.751Z,3.30
2022-11-17T08:28:59.136Z,3.58
2022-11-17T08:31:46.248Z,3.35
2022-11-17T08:34:33.280Z,3.80
2022-11-17T08:37:19.026Z,3.10
2022-11-17T08:40:04.774Z,3.63
2022-11-17T08:43:00.367Z,3.80
2022-11-17T08:45:46.966Z,2.90
2022-11-17T08:48:33.112Z,3.67
2022-11-17T08:51:18.732Z,3.90
2022-11-17T08:54:04.265Z,3.60
2022-11-17T08:56:49.790Z,3.10
2022-11-17T08:59:35.525Z,3.90
2022-11-17T09:02:20.961Z,3.28
2022-11-17T09:05:07.340Z,3.50
2022-11-17T09:07:53.628Z,3.33
2022-11-17T09:10:39.226Z,3.50
2022-11-17T09:13:25.157Z,3.30
2022-11-17T09:16:11.857Z,3.87
2022-11-17T09:18:58.466Z,3.58
2022-11-17T09:22:07.702Z,3.42
2022-11-17T09:24:53.825Z,3.38
2022-11-17T09:27:39.657Z,3.90
2022-11-17T09:30:28.434Z,3.25
2022-11-17T09:33:14.013Z,3.05
2022-11-17T09:35:59.606Z,3.67
2022-11-17T09:38:46.769Z,3.43
2022-11-17T09:41:49.753Z,3.50
2022-11-17T09:44:42.200Z,3.55
2022-11-17T09:48:07.271Z,3.17
2022-11-17T09:51:06.143Z,3.78
2022-11-17T09:54:03.522Z,3.15
2022-11-17T09:56:50.763Z,3.55
2022-11-17T09:59:37.057Z,3.22
2022-11-17T10:02:22.637Z,3.67
2022-11-17T10:05:15.418Z,3.58
2022-11-17T10:08:07.237Z,3.35
2022-11-17T10:10:53.040Z,2.80
2022-11-17T10:13:38.996Z,3.63
2022-11-17T10:16:24.772Z,3.40
2022-11-17T10:19:29.790Z,3.25
2022-11-17T10:22:34.932Z,3.47
2022-11-17T10:25:38.772Z,2.90
2022-11-17T10:28:32.797Z,3.40
2022-11-17T10:31:19.581Z,3.25
2022-11-17T10:34:05.203Z,3.72
2022-11-17T10:36:50.632Z,3.22
2022-11-17T10:39:41.733Z,3.72
2022-11-17T10:42:27.937Z,3.30
2022-11-17T10:45:17.995Z,3.28
2022-11-17T10:48:23.273Z,3.13
2022-11-17T10:51:19.550Z,3.63
2022-11-17T10:54:16.767Z,3.67
2022-11-17T10:57:07.131Z,3.10
2022-11-17T10:59:57.786Z,2.92
2022-11-17T11:02:43.579Z,3.47
2022-11-17T11:05:29.049Z,3.20
2022-11-17T11:08:23.645Z,3.20
2022-11-17T11:11:19.922Z,3.10
2022-11-17T11:14:19.923Z,3.53
2022-11-17T11:17:13.471Z,2.72
2022-11-17T11:20:01.180Z,3.27
2022-11-17T11:23:02.573Z,3.45
2022-11-17T11:25:52.861Z,3.20
2022-11-17T11:29:12.572Z,2.83
2022-11-17T11:32:36.929Z,2.90
2022-11-17T11:35:42.178Z,3.08
2022-11-17T11:38:38.196Z,3.15
2022-11-17T11:41:38.525Z,2.88
2022-11-17T11:44:32.724Z,2.88
2022-11-17T11:47:32.131Z,3.15
2022-11-17T11:50:37.630Z,3.33
2022-11-17T11:53:52.228Z,3.38
2022-11-17T11:56:40.522Z,3.38
2022-11-17T11:59:41.930Z,3.00
2022-11-17T12:02:42.307Z,3.30
2022-11-17T12:05:59.573Z,3.28
2022-11-17T12:09:17.531Z,3.00
2022-11-17T12:12:13.331Z,3.00
2022-11-17T12:15:19.177Z,3.08
2022-11-17T12:18:06.166Z,3.95
2022-11-17T12:20:55.287Z,3.20
2022-11-17T12:23:59.937Z,3.25
2022-11-17T12:26:45.679Z,3.25
2022-11-17T12:29:31.818Z,3.07
2022-11-17T12:32:49.227Z,3.28
2022-11-17T12:35:36.694Z,3.40
2022-11-17T12:38:22.411Z,3.80
2022-11-17T12:41:08.315Z,5.70
2022-11-17T12:44:28.166Z,3.50
2022-11-17T12:47:14.065Z,3.00
2022-11-17T12:50:11.962Z,3.95
2022-11-17T12:53:09.387Z,3.42
2022-11-17T12:56:18.246Z,3.22
2022-11-17T12:59:24.518Z,3.22
2022-11-17T13:02:27.091Z,4.65
2022-11-17T13:05:18.820Z,4.10
2022-11-17T13:08:16.199Z,4.07
2022-11-17T13:11:11.528Z,3.70
2022-11-17T13:14:17.139Z,4.32
2022-11-17T13:17:03.245Z,4.60
2022-11-17T13:19:58.375Z,4.25
2022-11-17T13:22:58.738Z,4.50
2022-11-17T13:25:46.247Z,3.30
2022-11-17T13:28:32.691Z,3.90
2022-11-17T13:31:20.244Z,3.97
2022-11-17T13:34:14.232Z,3.75
2022-11-17T13:37:01.175Z,3.92
2022-11-17T14:00:01.171Z,4.30
2022-11-17T14:02:58.925Z,3.60
2022-11-17T14:05:57.176Z,3.85
2022-11-17T14:09:01.254Z,3.97
2022-11-17T14:11:47.410Z,3.42
2022-11-17T14:14:38.878Z,3.10
2022-11-17T14:17:24.704Z,3.43
2022-11-17T14:20:31.075Z,3.72
2022-11-17T14:23:18.470Z,3.90
2022-11-17T14:26:04.385Z,3.97
2022-11-17T14:28:51.176Z,3.42
2022-11-17T14:31:37.115Z,3.85
2022-11-17T14:34:23.469Z,3.63
2022-11-17T14:37:10.474Z,3.38
2022-11-17T14:40:09.167Z,3.60
2022-11-17T14:42:54.580Z,3.85
2022-11-17T14:45:40.529Z,3.63
2022-11-17T14:48:26.511Z,3.97
2022-11-17T14:51:12.215Z,3.47
2022-11-17T14:53:58.081Z,3.70
2022-11-17T14:56:43.816Z,3.67
2022-11-17T15:00:14.567Z,3.93
2022-11-17T15:12:39.432Z,3.83
2022-11-17T15:15:25.354Z,3.75
2022-11-17T15:18:27.254Z,3.97
2022-11-17T15:21:16.643Z,3.75
2022-11-17T15:24:04.078Z,3.50
2022-11-17T15:26:49.609Z,3.60
2022-11-17T15:29:35.356Z,3.97
2022-11-17T15:32:21.008Z,3.80
2022-11-17T15:35:06.938Z,4.18
2022-11-17T15:37:52.615Z,3.70
2022-11-17T15:40:38.185Z,3.40
2022-11-17T15:43:31.796Z,3.58
2022-11-17T15:46:18.770Z,3.00
2022-11-17T15:49:04.458Z,3.55
2022-11-17T15:51:49.825Z,3.63
2022-11-17T15:54:35.539Z,3.55
2022-11-17T15:57:21.118Z,3.28
2022-11-17T16:00:07.446Z,3.13
2022-11-17T16:02:58.339Z,3.65
2022-11-17T16:05:45.246Z,3.65
2022-11-17T16:08:31.812Z,3.35
2022-11-17T16:11:17.680Z,3.53
